Time;durP1;ratioP1;P1;durP2;ratioP2;P2;SDS_P1;SDS_P2;PMS_P1;PMS_P2;Temp;Humidity;BMP_temperature;BMP_pressure;BME280_temperature;BME280_humidity;BME280_pressure;Samples;Min_cycle;Max_cycle;Signal;HPM_P1;HPM_P2
2022/12/17 13:08:16;;;;;;;;;;;-0.50;99.90;;;;;;4952381;28;20010;-72
2022/12/17 13:10:48;;;;;;;;;;;-0.50;99.90;;;;;;4966573;28;19926;-72
2022/12/17 13:13:17;;;;;;;;;;;-0.50;99.90;;;;;;4945012;29;20006;-73
2022/12/17 13:15:45;;;;;;;;;;;-0.50;99.90;;;;;;4949659;28;19966;-73
2022/12/17 13:18:30;;;;;;;;;;;-0.50;99.90;;;;;;4965920;28;19937;-72
2022/12/17 13:21:04;;;;;;;;;;;-0.50;99.90;;;;;;4957136;28;20005;-73
2022/12/17 13:23:35;;;;;;;;;;;-0.50;99.90;;;;;;4963464;28;20024;-73
2022/12/17 13:26:21;;;;;;;;;;;-0.50;99.90;;;;;;4953801;28;19922;-73
2022/12/17 13:29:10;;;;;;;;;;;-0.60;99.90;;;;;;4936389;28;20085;-73
2022/12/17 13:31:46;;;;;;;;;;;-0.60;99.90;;;;;;4956684;28;20016;-72
2022/12/17 13:34:22;;;;;;;;;;;-0.60;99.90;;;;;;4944578;28;19926;-72
2022/12/17 13:36:53;;;;;;;;;;;-0.60;99.90;;;;;;4949089;28;19935;-72
2022/12/17 13:39:42;;;;;;;;;;;-0.60;99.90;;;;;;4961362;28;19926;-72
2022/12/17 13:42:19;;;;;;;;;;;-0.70;99.90;;;;;;4955236;28;19974;-72
2022/12/17 13:44:45;;;;;;;;;;;-0.70;99.90;;;;;;4950218;28;19940;-72
2022/12/17 13:47:21;;;;;;;;;;;-0.70;99.90;;;;;;4946683;28;20764;-72
2022/12/17 13:49:51;;;;;;;;;;;-0.70;99.90;;;;;;4950354;28;20518;-72
2022/12/17 13:52:18;;;;;;;;;;;-0.70;99.90;;;;;;4946680;28;20323;-72
2022/12/17 13:54:44;;;;;;;;;;;-0.70;99.90;;;;;;4949824;28;19923;-72
2022/12/17 13:57:14;;;;;;;;;;;-0.70;99.90;;;;;;4946113;28;20389;-72
2022/12/17 13:59:40;;;;;;;;;;;-0.80;99.90;;;;;;4952313;28;19926;-72
2022/12/17 14:02:21;;;;;;;;;;;-0.80;99.90;;;;;;4950174;28;19933;-72
2022/12/17 14:04:50;;;;;;;;;;;-0.80;99.90;;;;;;4955192;28;20405;-72
2022/12/17 14:07:15;;;;;;;;;;;-0.90;99.90;;;;;;4949507;28;20304;-72
2022/12/17 14:09:42;;;;;;;;;;;-0.90;99.90;;;;;;4933273;28;19926;-72
2022/12/17 14:12:23;;;;;;;;;;;-0.90;99.90;;;;;;4942663;29;20518;-72
2022/12/17 14:14:56;;;;;;;;;;;-0.90;99.90;;;;;;4933846;29;19926;-72
2022/12/17 14:17:34;;;;;;;;;;;-1.00;99.90;;;;;;4943420;28;20026;-72
2022/12/17 14:20:06;;;;;;;;;;;-1.00;99.90;;;;;;4967949;28;20235;-72
2022/12/17 14:22:37;;;;;;;;;;;-1.00;99.90;;;;;;4965483;28;20000;-72
2022/12/17 14:25:04;;;;;;;;;;;-1.00;99.90;;;;;;4949684;28;20343;-72
2022/12/17 14:27:34;;;;;;;;;;;-1.10;99.90;;;;;;4949636;28;19926;-72
2022/12/17 14:30:01;;;;;;;;;;;-1.20;99.90;;;;;;4947964;28;20032;-72
2022/12/17 14:32:34;;;;;;;;;;;-1.20;99.90;;;;;;4948088;28;19988;-72
2022/12/17 14:35:00;;;;;;;;;;;-1.30;99.90;;;;;;4933521;28;20359;-72
2022/12/17 14:37:26;;;;;;;;;;;-1.30;99.90;;;;;;4931547;29;19973;-72
2022/12/17 14:39:53;;;;;;;;;;;-1.30;99.90;;;;;;4948602;28;19927;-72
2022/12/17 14:42:28;;;;;;;;;;;-1.40;99.90;;;;;;4934696;28;20343;-72
2022/12/17 14:45:01;;;;;;;;;;;-1.40;99.90;;;;;;4933848;28;20003;-72
2022/12/17 14:47:27;;;;;;;;;;;-1.50;99.90;;;;;;4949530;28;19977;-72
2022/12/17 14:50:05;;;;;;;;;;;-1.50;99.90;;;;;;4961128;28;19922;-72
2022/12/17 14:52:44;;;;;;;;;;;-1.50;99.90;;;;;;4932713;29;19981;-72
2022/12/17 14:55:30;;;;;;;;;;;-1.60;99.90;;;;;;4949554;28;20461;-72
2022/12/17 14:58:25;;;;;;;;;;;-1.60;99.90;;;;;;4959418;28;20028;-72
2022/12/17 15:00:52;;;;;;;;;;;-1.70;99.90;;;;;;4933769;28;20290;-72
2022/12/17 15:03:21;;;;;;;;;;;-1.70;99.90;;;;;;4950437;28;19949;-72
2022/12/17 15:05:50;;;;;;;;;;;-1.70;99.90;;;;;;4949186;28;19922;-72
2022/12/17 15:08:15;;;;;;;;;;;-1.80;99.90;;;;;;4932466;28;20224;-72
2022/12/17 15:10:41;;;;;;;;;;;-1.80;99.90;;;;;;4947362;28;19926;-72
2022/12/17 15:13:06;;;;;;;;;;;-1.90;99.90;;;;;;4950046;28;20398;-72
2022/12/17 15:15:32;;;;;;;;;;;-1.90;99.90;;;;;;4939806;29;19923;-72
2022/12/17 15:17:58;;;;;;;;;;;-1.90;99.90;;;;;;4935044;28;19926;-72
2022/12/17 15:20:23;;;;;;;;;;;-1.90;99.90;;;;;;4947353;28;19927;-72
2022/12/17 15:22:49;;;;;;;;;;;-1.90;99.90;;;;;;4946360;28;20013;-72
2022/12/17 15:25:16;;;;;;;;;;;-2.00;99.90;;;;;;4958115;28;19926;-72
2022/12/17 15:27:42;;;;;;;;;;;-2.00;99.90;;;;;;4960347;28;20369;-72
2022/12/17 15:30:15;;;;;;;;;;;-2.10;99.90;;;;;;4933380;28;20015;-72
2022/12/17 15:32:41;;;;;;;;;;;-2.10;99.90;;;;;;4947014;28;20663;-72
2022/12/17 15:35:07;;;;;;;;;;;-2.20;99.90;;;;;;4947940;28;19981;-72
2022/12/17 15:37:33;;;;;;;;;;;-2.20;99.90;;;;;;4945503;28;20422;-72
2022/12/17 15:39:58;;;;;;;;;;;-2.20;99.90;;;;;;4931050;29;19961;-72
2022/12/17 15:45:08;;;;;;;;;;;-2.40;99.90;;;;;;4952841;28;19922;-72
2022/12/17 15:47:34;;;;;;;;;;;-2.40;99.90;;;;;;4948621;28;19928;-72
2022/12/17 15:49:59;;;;;;;;;;;-2.40;99.90;;;;;;4932208;28;19937;-72
2022/12/17 15:52:25;;;;;;;;;;;-2.40;99.90;;;;;;4931672;28;19961;-72
2022/12/17 15:54:50;;;;;;;;;;;-2.40;99.90;;;;;;4945411;28;20639;-72
2022/12/17 15:57:17;;;;;;;;;;;-2.40;99.90;;;;;;4948438;28;19922;-72
2022/12/17 15:59:42;;;;;;;;;;;-2.40;99.90;;;;;;4934428;28;19977;-72
2022/12/17 16:02:09;;;;;;;;;;;-2.40;99.90;;;;;;4947496;28;19962;-72
2022/12/17 16:04:36;;;;;;;;;;;-2.40;99.90;;;;;;4933803;28;20235;-72
2022/12/17 16:07:02;;;;;;;;;;;-2.50;99.90;;;;;;4955831;28;20410;-72
2022/12/17 16:09:28;;;;;;;;;;;-2.50;99.90;;;;;;4951346;28;19930;-72
2022/12/17 16:11:54;;;;;;;;;;;-2.50;99.90;;;;;;4955064;28;19926;-72
2022/12/17 16:14:19;;;;;;;;;;;-2.50;99.90;;;;;;4952477;28;19934;-72
2022/12/17 16:16:45;;;;;;;;;;;-2.60;99.90;;;;;;4933094;28;19973;-72
2022/12/17 16:19:10;;;;;;;;;;;-2.60;99.90;;;;;;4932083;28;19937;-72
2022/12/17 16:21:36;;;;;;;;;;;-2.60;99.90;;;;;;4941422;29;20351;-72
2022/12/17 16:24:02;;;;;;;;;;;-2.70;99.90;;;;;;4958115;28;19922;-72
2022/12/17 16:26:28;;;;;;;;;;;-2.70;99.90;;;;;;4947821;28;20013;-72
2022/12/17 16:28:53;;;;;;;;;;;-2.70;99.90;;;;;;4943118;28;19926;-72
2022/12/17 16:31:19;;;;;;;;;;;-2.70;99.90;;;;;;4931960;28;20268;-72
2022/12/17 16:33:46;;;;;;;;;;;-2.70;99.90;;;;;;4932638;28;19926;-72
2022/12/17 16:36:14;;;;;;;;;;;-2.70;99.90;;;;;;4959091;28;20122;-72
2022/12/17 16:38:58;;;;;;;;;;;-2.80;99.90;;;;;;4946670;28;19969;-72
2022/12/17 16:41:23;;;;;;;;;;;-2.80;99.90;;;;;;4930714;28;19926;-72
2022/12/17 16:43:49;;;;;;;;;;;-2.80;99.90;;;;;;4948715;28;19970;-72
2022/12/17 16:46:26;;;;;;;;;;;-2.90;99.90;;;;;;4932059;28;19926;-72
2022/12/17 16:48:52;;;;;;;;;;;-2.90;99.90;;;;;;4950049;28;19922;-72
2022/12/17 16:51:18;;;;;;;;;;;-2.90;99.90;;;;;;4946777;28;19930;-72
2022/12/17 16:53:44;;;;;;;;;;;-2.90;99.90;;;;;;4932453;28;19922;-72
2022/12/17 16:56:14;;;;;;;;;;;-3.00;99.90;;;;;;4931779;28;19934;-72
2022/12/17 16:58:39;;;;;;;;;;;-3.00;99.90;;;;;;4944540;28;19926;-72
2022/12/17 17:01:05;;;;;;;;;;;-3.00;99.90;;;;;;4938641;28;19922;-71
2022/12/17 17:03:30;;;;;;;;;;;-3.00;99.90;;;;;;4944394;28;20025;-71
2022/12/17 17:05:59;;;;;;;;;;;-3.00;99.90;;;;;;4942906;28;20370;-71
2022/12/17 17:08:24;;;;;;;;;;;-3.10;99.90;;;;;;4986317;28;20125;-71
2022/12/17 17:10:50;;;;;;;;;;;-3.10;99.90;;;;;;4952196;28;20025;-71
2022/12/17 17:13:15;;;;;;;;;;;-3.10;99.90;;;;;;4946239;28;19926;-71
2022/12/17 17:15:41;;;;;;;;;;;-3.10;99.90;;;;;;4947901;28;19933;-71
2022/12/17 17:18:06;;;;;;;;;;;-3.10;99.90;;;;;;4947658;28;20489;-71
2022/12/17 17:20:32;;;;;;;;;;;-3.10;99.90;;;;;;4946450;28;20120;-71
2022/12/17 17:22:58;;;;;;;;;;;-3.10;99.90;;;;;;4952037;28;20004;-71
2022/12/17 17:25:24;;;;;;;;;;;-3.10;99.90;;;;;;4937809;28;20066;-71
2022/12/17 17:27:49;;;;;;;;;;;-3.10;99.90;;;;;;4943003;28;20345;-71
2022/12/17 17:30:15;;;;;;;;;;;-3.10;99.90;;;;;;4945803;28;20084;-71
2022/12/17 17:32:40;;;;;;;;;;;-3.20;99.90;;;;;;4942804;28;20040;-71
2022/12/17 17:35:06;;;;;;;;;;;-3.20;99.90;;;;;;4930558;29;20303;-71
2022/12/17 17:37:32;;;;;;;;;;;-3.20;99.90;;;;;;4947165;28;19981;-71
2022/12/17 17:39:57;;;;;;;;;;;-3.20;99.90;;;;;;4945308;28;19935;-71
2022/12/17 17:42:23;;;;;;;;;;;-3.20;99.90;;;;;;4931627;28;20354;-71
2022/12/17 17:44:48;;;;;;;;;;;-3.20;99.90;;;;;;4947583;28;19980;-71
2022/12/17 17:47:14;;;;;;;;;;;-3.20;99.90;;;;;;4933924;28;19926;-71
2022/12/17 17:49:40;;;;;;;;;;;-3.20;99.90;;;;;;4947022;28;19926;-71
2022/12/17 17:52:06;;;;;;;;;;;-3.20;99.90;;;;;;4932598;28;20035;-71
2022/12/17 17:54:31;;;;;;;;;;;-3.20;99.90;;;;;;4939296;28;19927;-71
2022/12/17 17:56:57;;;;;;;;;;;-3.20;99.90;;;;;;4948810;28;19934;-71
2022/12/17 17:59:22;;;;;;;;;;;-3.30;99.90;;;;;;4948126;28;19927;-71
2022/12/17 18:01:49;;;;;;;;;;;-3.30;99.90;;;;;;4951469;28;20025;-71
2022/12/17 18:04:16;;;;;;;;;;;-3.30;99.90;;;;;;4944969;28;19973;-71
2022/12/17 18:06:42;;;;;;;;;;;-3.40;99.90;;;;;;4947212;28;19927;-71
2022/12/17 18:09:08;;;;;;;;;;;-3.40;99.90;;;;;;4941723;28;19941;-71
2022/12/17 18:11:34;;;;;;;;;;;-3.40;99.90;;;;;;4983504;28;19922;-71
2022/12/17 18:14:01;;;;;;;;;;;-3.40;99.90;;;;;;4950090;28;19923;-72
2022/12/17 18:16:31;;;;;;;;;;;-3.40;99.90;;;;;;4977009;28;20504;-71
2022/12/17 18:19:00;;;;;;;;;;;-3.50;99.90;;;;;;4979535;28;19930;-71
2022/12/17 18:21:28;;;;;;;;;;;-3.50;99.90;;;;;;4966112;28;19922;-71
2022/12/17 18:23:55;;;;;;;;;;;-3.50;99.90;;;;;;4965557;28;19950;-71
2022/12/17 18:26:22;;;;;;;;;;;-3.50;99.90;;;;;;4972473;28;19922;-71
2022/12/17 18:28:48;;;;;;;;;;;-3.60;99.90;;;;;;4971049;28;19936;-70
2022/12/17 18:31:17;;;;;;;;;;;-3.60;99.90;;;;;;4953532;28;19922;-72
2022/12/17 18:33:44;;;;;;;;;;;-3.60;99.90;;;;;;4965971;28;19953;-71
2022/12/17 18:36:12;;;;;;;;;;;-3.60;99.90;;;;;;4942162;28;19922;-71
2022/12/17 18:38:46;;;;;;;;;;;-3.60;99.90;;;;;;4969050;28;19934;-72
2022/12/17 18:44:00;;;;;;;;;;;-3.70;99.90;;;;;;4989158;28;20170;-71
2022/12/17 18:46:28;;;;;;;;;;;-3.70;99.90;;;;;;4963378;28;19922;-72
2022/12/17 18:48:58;;;;;;;;;;;-3.70;99.90;;;;;;4964468;28;19922;-72
2022/12/17 18:51:36;;;;;;;;;;;-3.70;99.90;;;;;;4968374;28;19926;-72
2022/12/17 18:54:03;;;;;;;;;;;-3.80;99.90;;;;;;4969947;28;19922;-72
2022/12/17 18:56:29;;;;;;;;;;;-3.80;99.90;;;;;;4953933;28;20699;-72
2022/12/17 18:58:58;;;;;;;;;;;-3.80;99.90;;;;;;4958877;28;19929;-71
2022/12/17 19:01:34;;;;;;;;;;;-3.80;99.90;;;;;;4957806;28;19928;-71
2022/12/17 19:04:04;;;;;;;;;;;-3.80;99.90;;;;;;4961684;28;19980;-72
2022/12/17 19:06:30;;;;;;;;;;;-3.90;99.90;;;;;;4956603;28;19921;-71
2022/12/17 19:08:55;;;;;;;;;;;-3.90;99.90;;;;;;4946028;28;19922;-72
2022/12/17 19:11:27;;;;;;;;;;;-3.90;99.90;;;;;;4971236;28;20353;-71
2022/12/17 19:13:53;;;;;;;;;;;-3.90;99.90;;;;;;4930436;28;20037;-71
2022/12/17 19:16:22;;;;;;;;;;;-3.90;99.90;;;;;;4923939;28;20022;-71
2022/12/17 19:18:55;;;;;;;;;;;-4.00;99.90;;;;;;4945219;28;19987;-71
2022/12/17 19:21:21;;;;;;;;;;;-4.00;99.90;;;;;;4937479;28;20294;-71
2022/12/17 19:23:48;;;;;;;;;;;-4.00;99.90;;;;;;4978407;28;19926;-71
2022/12/17 19:26:18;;;;;;;;;;;-4.00;99.90;;;;;;4954867;28;19922;-71
2022/12/17 19:28:45;;;;;;;;;;;-4.00;99.90;;;;;;4942495;28;20378;-72
2022/12/17 19:31:10;;;;;;;;;;;-4.00;99.90;;;;;;4951706;28;19926;-71
2022/12/17 19:33:37;;;;;;;;;;;-4.00;99.90;;;;;;4948410;28;19933;-71
2022/12/17 19:36:03;;;;;;;;;;;-4.00;99.90;;;;;;4955482;28;20005;-71
2022/12/17 19:38:29;;;;;;;;;;;-4.10;99.90;;;;;;4952094;28;19952;-70
2022/12/17 19:40:54;;;;;;;;;;;-4.10;99.90;;;;;;4952795;28;19939;-72
2022/12/17 19:43:26;;;;;;;;;;;-4.00;99.90;;;;;;4937840;28;19933;-71
2022/12/17 19:45:52;;;;;;;;;;;-4.10;99.90;;;;;;4954081;28;20256;-72
2022/12/17 19:48:20;;;;;;;;;;;-4.10;99.90;;;;;;4930642;28;20017;-72
2022/12/17 19:50:53;;;;;;;;;;;-4.10;99.90;;;;;;4934412;28;19962;-71
2022/12/17 19:53:22;;;;;;;;;;;-4.20;99.90;;;;;;4964777;28;19921;-71
2022/12/17 19:55:47;;;;;;;;;;;-4.20;99.90;;;;;;4941582;29;19998;-71
2022/12/17 19:58:14;;;;;;;;;;;-4.20;99.90;;;;;;4951492;28;19926;-71
2022/12/17 20:00:54;;;;;;;;;;;-4.20;99.90;;;;;;4949433;28;19932;-71
2022/12/17 20:03:20;;;;;;;;;;;-4.30;99.90;;;;;;4960942;28;19977;-71
2022/12/17 20:05:50;;;;;;;;;;;-4.30;99.90;;;;;;4952011;28;19965;-71
2022/12/17 20:08:18;;;;;;;;;;;-4.30;99.90;;;;;;4952508;28;20448;-71
2022/12/17 20:10:44;;;;;;;;;;;-4.30;99.90;;;;;;4945987;28;19926;-71
2022/12/17 20:13:09;;;;;;;;;;;-4.30;99.90;;;;;;4951664;28;19922;-71
2022/12/17 20:15:35;;;;;;;;;;;-4.30;99.90;;;;;;4935010;28;19926;-71
2022/12/17 20:18:01;;;;;;;;;;;-4.30;99.90;;;;;;4951390;28;20576;-71
2022/12/17 20:20:26;;;;;;;;;;;-4.30;99.90;;;;;;4959886;28;20415;-70
2022/12/17 20:22:52;;;;;;;;;;;-4.30;99.90;;;;;;4966815;28;19923;-71
2022/12/17 20:25:18;;;;;;;;;;;-4.30;99.90;;;;;;4958903;28;20374;-71
2022/12/17 20:27:43;;;;;;;;;;;-4.30;99.90;;;;;;4920656;29;19942;-71
2022/12/17 20:30:12;;;;;;;;;;;-4.30;99.90;;;;;;4950732;28;19929;-72
2022/12/17 20:32:39;;;;;;;;;;;-4.40;99.90;;;;;;4934434;28;20553;-71
2022/12/17 20:35:07;;;;;;;;;;;-4.30;99.90;;;;;;4940501;29;19922;-71
2022/12/17 20:37:32;;;;;;;;;;;-4.30;99.90;;;;;;4946741;28;19997;-71
2022/12/17 20:39:58;;;;;;;;;;;-4.30;99.90;;;;;;4942832;28;20025;-71
2022/12/17 20:42:23;;;;;;;;;;;-4.20;99.90;;;;;;4936123;28;19985;-71
2022/12/17 20:44:49;;;;;;;;;;;-4.20;99.90;;;;;;4948534;28;20151;-71
2022/12/17 20:47:15;;;;;;;;;;;-4.20;99.90;;;;;;4924753;28;20370;-71
2022/12/17 20:49:40;;;;;;;;;;;-4.20;99.90;;;;;;4919896;29;20359;-71
2022/12/17 20:52:06;;;;;;;;;;;-4.10;99.90;;;;;;4950965;28;19927;-71
2022/12/17 20:54:32;;;;;;;;;;;-4.20;99.90;;;;;;4936726;28;19923;-72
2022/12/17 20:56:58;;;;;;;;;;;-4.20;99.90;;;;;;4953116;28;19954;-71
2022/12/17 20:59:24;;;;;;;;;;;-4.20;99.90;;;;;;4937067;28;19931;-71
2022/12/17 21:01:49;;;;;;;;;;;-4.20;99.90;;;;;;4949342;28;19930;-69
2022/12/17 21:04:15;;;;;;;;;;;-4.20;99.90;;;;;;4950799;28;19926;-72
2022/12/17 21:06:44;;;;;;;;;;;-4.20;99.90;;;;;;4947277;28;19985;-71
2022/12/17 21:09:11;;;;;;;;;;;-4.20;99.90;;;;;;4960852;28;19922;-72
2022/12/17 21:11:37;;;;;;;;;;;-4.20;99.90;;;;;;4950742;28;20266;-72
2022/12/17 21:14:07;;;;;;;;;;;-4.10;99.90;;;;;;4948597;28;19923;-71
2022/12/17 21:16:33;;;;;;;;;;;-4.10;99.90;;;;;;4945486;28;19930;-70
2022/12/17 21:19:02;;;;;;;;;;;-4.10;99.90;;;;;;4952131;28;20135;-71
2022/12/17 21:21:30;;;;;;;;;;;-4.10;99.90;;;;;;4948233;28;20016;-71
2022/12/17 21:23:56;;;;;;;;;;;-4.10;99.90;;;;;;4944513;28;19976;-71
2022/12/17 21:26:21;;;;;;;;;;;-4.10;99.90;;;;;;4942043;28;19926;-70
2022/12/17 21:28:48;;;;;;;;;;;-4.10;99.90;;;;;;4952186;28;19931;-70
2022/12/17 21:31:17;;;;;;;;;;;-4.10;99.90;;;;;;4946022;28;20072;-70
2022/12/17 21:33:43;;;;;;;;;;;-4.10;99.90;;;;;;4955197;28;19949;-70
2022/12/17 21:36:09;;;;;;;;;;;-4.10;99.90;;;;;;4946253;28;20053;-70
2022/12/17 21:38:34;;;;;;;;;;;-4.10;99.90;;;;;;4924158;28;20394;-70
2022/12/17 21:41:08;;;;;;;;;;;-4.10;99.90;;;;;;4947854;28;19932;-70
2022/12/17 21:43:35;;;;;;;;;;;-4.10;99.90;;;;;;4957240;28;19984;-70
2022/12/17 21:46:01;;;;;;;;;;;-4.10;99.90;;;;;;4961514;28;19923;-70
2022/12/17 21:48:27;;;;;;;;;;;-4.20;99.90;;;;;;4934999;28;19926;-70
2022/12/17 21:50:53;;;;;;;;;;;-4.20;99.90;;;;;;4949494;28;20320;-70
2022/12/17 21:53:18;;;;;;;;;;;-4.20;99.90;;;;;;4937883;28;19922;-70
2022/12/17 21:55:44;;;;;;;;;;;-4.20;99.90;;;;;;4967302;28;19930;-70
2022/12/17 21:58:10;;;;;;;;;;;-4.20;99.90;;;;;;4953446;28;19922;-70
2022/12/17 22:00:35;;;;;;;;;;;-4.10;99.90;;;;;;4936908;28;19933;-70
2022/12/17 22:03:01;;;;;;;;;;;-4.10;99.90;;;;;;4935462;28;20021;-70
2022/12/17 22:05:26;;;;;;;;;;;-4.10;99.90;;;;;;4958256;28;20052;-70
2022/12/17 22:07:52;;;;;;;;;;;-4.10;99.90;;;;;;4952454;28;20174;-70
2022/12/17 22:10:18;;;;;;;;;;;-4.10;99.90;;;;;;4951543;28;20013;-70
2022/12/17 22:15:28;;;;;;;;;;;-4.10;99.90;;;;;;4968394;28;20322;-70
2022/12/17 22:17:54;;;;;;;;;;;-4.00;99.90;;;;;;4936660;28;19922;-70
2022/12/17 22:20:20;;;;;;;;;;;-4.00;99.90;;;;;;4948926;28;19935;-70
2022/12/17 22:22:46;;;;;;;;;;;-4.00;99.90;;;;;;4952946;28;20725;-70
2022/12/17 22:25:12;;;;;;;;;;;-4.00;99.90;;;;;;4957544;28;19930;-70
2022/12/17 22:27:38;;;;;;;;;;;-4.00;99.90;;;;;;4950644;28;19930;-70
2022/12/17 22:32:58;;;;;;;;;;;-4.00;99.90;;;;;;4949324;28;20362;-71
2022/12/17 22:35:24;;;;;;;;;;;-4.00;99.90;;;;;;4933446;28;19945;-70
2022/12/17 22:37:49;;;;;;;;;;;-3.90;99.90;;;;;;4940300;28;20310;-70
2022/12/17 22:40:15;;;;;;;;;;;-4.00;99.90;;;;;;4955674;28;19985;-70
2022/12/17 22:45:25;;;;;;;;;;;-4.00;99.90;;;;;;4935579;28;19969;-71
2022/12/17 22:47:50;;;;;;;;;;;-4.00;99.90;;;;;;4949364;28;19926;-71
2022/12/17 22:50:16;;;;;;;;;;;-4.00;99.90;;;;;;4947888;28;20020;-70
2022/12/17 22:52:41;;;;;;;;;;;-4.00;99.90;;;;;;4957345;28;20375;-70
2022/12/17 22:55:07;;;;;;;;;;;-4.10;99.90;;;;;;4949239;28;19930;-70
2022/12/17 22:57:33;;;;;;;;;;;-4.00;99.90;;;;;;4927051;28;19922;-70
2022/12/17 22:59:58;;;;;;;;;;;-4.00;99.90;;;;;;4938030;28;20014;-70
2022/12/17 23:02:24;;;;;;;;;;;-4.10;99.90;;;;;;4950009;28;19922;-70
2022/12/17 23:04:49;;;;;;;;;;;-4.10;99.90;;;;;;4937161;28;19980;-70
2022/12/17 23:07:15;;;;;;;;;;;-4.10;99.90;;;;;;4941445;28;20450;-70
2022/12/17 23:09:40;;;;;;;;;;;-4.00;99.90;;;;;;4933133;28;19927;-70
2022/12/17 23:14:50;;;;;;;;;;;-4.00;99.90;;;;;;4954491;28;19926;-69
2022/12/17 23:17:16;;;;;;;;;;;-4.00;99.90;;;;;;4938382;28;19934;-69
2022/12/17 23:19:42;;;;;;;;;;;-4.00;99.90;;;;;;4946547;28;19941;-69
2022/12/17 23:22:07;;;;;;;;;;;-4.00;99.90;;;;;;4944180;28;19936;-69
2022/12/17 23:24:33;;;;;;;;;;;-4.00;99.90;;;;;;4946018;28;20005;-69
2022/12/17 23:26:58;;;;;;;;;;;-4.10;99.90;;;;;;4947521;28;20272;-69
2022/12/17 23:29:24;;;;;;;;;;;-4.10;99.90;;;;;;4954578;28;20145;-69
2022/12/17 23:31:50;;;;;;;;;;;-4.10;99.90;;;;;;4972907;28;19926;-69
2022/12/17 23:34:15;;;;;;;;;;;-4.10;99.90;;;;;;4948164;28;19926;-69
2022/12/17 23:36:41;;;;;;;;;;;-4.20;99.90;;;;;;4959838;28;20628;-69
2022/12/17 23:39:07;;;;;;;;;;;-4.20;99.90;;;;;;4938776;28;19965;-69
2022/12/17 23:41:32;;;;;;;;;;;-4.20;99.90;;;;;;4983179;28;19922;-69
2022/12/17 23:43:58;;;;;;;;;;;-4.30;99.90;;;;;;4951376;28;19926;-69
2022/12/17 23:46:26;;;;;;;;;;;-4.20;99.90;;;;;;4939420;28;19945;-69
2022/12/17 23:48:51;;;;;;;;;;;-4.20;99.90;;;;;;4965389;28;19926;-70
2022/12/17 23:51:18;;;;;;;;;;;-4.30;99.90;;;;;;4954514;28;20002;-69
2022/12/17 23:53:43;;;;;;;;;;;-4.20;99.90;;;;;;4952911;28;20005;-69
2022/12/17 23:56:27;;;;;;;;;;;-4.20;99.90;;;;;;4966561;28;19926;-69
2022/12/17 23:58:54;;;;;;;;;;;-4.20;99.90;;;;;;4951006;28;19933;-68
